sensor_id;sensor_type;location;lat;lon;timestamp;P1;durP1;ratioP1;P2;durP2;ratioP2
16845;SDS011;8539;53.188;8.696;2023-03-19T00:00:23;8.18;;;6.47;;
16845;SDS011;8539;53.188;8.696;2023-03-19T00:02:49;7.35;;;6.40;;
16845;SDS011;8539;53.188;8.696;2023-03-19T00:05:16;7.03;;;6.32;;
16845;SDS011;8539;53.188;8.696;2023-03-19T00:07:43;7.35;;;6.50;;
16845;SDS011;8539;53.188;8.696;2023-03-19T00:10:10;7.47;;;6.45;;
16845;SDS011;8539;53.188;8.696;2023-03-19T00:12:36;8.02;;;6.05;;
16845;SDS011;8539;53.188;8.696;2023-03-19T00:15:02;9.00;;;7.78;;
16845;SDS011;8539;53.188;8.696;2023-03-19T00:17:29;7.25;;;6.53;;
16845;SDS011;8539;53.188;8.696;2023-03-19T00:19:55;9.45;;;7.70;;
16845;SDS011;8539;53.188;8.696;2023-03-19T00:22:21;9.13;;;8.13;;
16845;SDS011;8539;53.188;8.696;2023-03-19T00:24:48;10.30;;;7.40;;
16845;SDS011;8539;53.188;8.696;2023-03-19T00:27:18;9.35;;;7.75;;
16845;SDS011;8539;53.188;8.696;2023-03-19T00:29:44;9.30;;;7.85;;
16845;SDS011;8539;53.188;8.696;2023-03-19T00:32:10;10.52;;;8.98;;
16845;SDS011;8539;53.188;8.696;2023-03-19T00:34:36;10.90;;;8.43;;
16845;SDS011;8539;53.188;8.696;2023-03-19T00:37:04;11.68;;;8.90;;
16845;SDS011;8539;53.188;8.696;2023-03-19T00:39:30;9.25;;;7.75;;
16845;SDS011;8539;53.188;8.696;2023-03-19T00:41:57;11.85;;;7.90;;
16845;SDS011;8539;53.188;8.696;2023-03-19T00:44:23;10.48;;;8.73;;
16845;SDS011;8539;53.188;8.696;2023-03-19T00:46:49;12.30;;;9.65;;
16845;SDS011;8539;53.188;8.696;2023-03-19T00:49:16;13.88;;;9.52;;
16845;SDS011;8539;53.188;8.696;2023-03-19T00:51:42;11.07;;;9.75;;
16845;SDS011;8539;53.188;8.696;2023-03-19T00:54:09;13.63;;;9.75;;
16845;SDS011;8539;53.188;8.696;2023-03-19T00:56:37;15.68;;;9.23;;
16845;SDS011;8539;53.188;8.696;2023-03-19T00:59:03;12.32;;;9.65;;
16845;SDS011;8539;53.188;8.696;2023-03-19T01:01:30;11.10;;;9.63;;
16845;SDS011;8539;53.188;8.696;2023-03-19T01:03:56;10.85;;;9.25;;
16845;SDS011;8539;53.188;8.696;2023-03-19T01:06:22;9.85;;;8.60;;
16845;SDS011;8539;53.188;8.696;2023-03-19T01:08:48;14.23;;;10.50;;
16845;SDS011;8539;53.188;8.696;2023-03-19T01:11:15;11.98;;;9.38;;
16845;SDS011;8539;53.188;8.696;2023-03-19T01:13:42;14.02;;;11.45;;
16845;SDS011;8539;53.188;8.696;2023-03-19T01:16:09;15.32;;;11.20;;
16845;SDS011;8539;53.188;8.696;2023-03-19T01:18:35;15.70;;;12.23;;
16845;SDS011;8539;53.188;8.696;2023-03-19T01:21:01;17.80;;;12.95;;
16845;SDS011;8539;53.188;8.696;2023-03-19T01:23:29;19.42;;;13.27;;
16845;SDS011;8539;53.188;8.696;2023-03-19T01:25:56;22.80;;;15.20;;
16845;SDS011;8539;53.188;8.696;2023-03-19T01:28:22;23.27;;;16.13;;
16845;SDS011;8539;53.188;8.696;2023-03-19T01:30:48;23.92;;;16.38;;
16845;SDS011;8539;53.188;8.696;2023-03-19T01:33:15;21.55;;;15.05;;
16845;SDS011;8539;53.188;8.696;2023-03-19T01:35:44;22.17;;;14.60;;
16845;SDS011;8539;53.188;8.696;2023-03-19T01:38:12;19.83;;;14.77;;
16845;SDS011;8539;53.188;8.696;2023-03-19T01:40:42;17.45;;;13.98;;
16845;SDS011;8539;53.188;8.696;2023-03-19T01:45:39;18.45;;;12.60;;
16845;SDS011;8539;53.188;8.696;2023-03-19T01:48:18;14.63;;;11.55;;
16845;SDS011;8539;53.188;8.696;2023-03-19T01:50:45;14.35;;;10.82;;
16845;SDS011;8539;53.188;8.696;2023-03-19T01:53:16;16.50;;;11.60;;
16845;SDS011;8539;53.188;8.696;2023-03-19T01:55:43;14.90;;;11.30;;
16845;SDS011;8539;53.188;8.696;2023-03-19T01:58:11;15.15;;;12.15;;
16845;SDS011;8539;53.188;8.696;2023-03-19T02:00:37;12.68;;;10.38;;
16845;SDS011;8539;53.188;8.696;2023-03-19T02:03:08;12.88;;;10.95;;
16845;SDS011;8539;53.188;8.696;2023-03-19T02:05:35;13.35;;;8.95;;
16845;SDS011;8539;53.188;8.696;2023-03-19T02:08:04;9.68;;;7.57;;
16845;SDS011;8539;53.188;8.696;2023-03-19T02:10:32;9.95;;;8.35;;
16845;SDS011;8539;53.188;8.696;2023-03-19T02:12:59;11.00;;;7.93;;
16845;SDS011;8539;53.188;8.696;2023-03-19T02:15:26;11.68;;;7.50;;
16845;SDS011;8539;53.188;8.696;2023-03-19T02:17:52;13.35;;;9.50;;
16845;SDS011;8539;53.188;8.696;2023-03-19T02:20:26;13.75;;;9.93;;
16845;SDS011;8539;53.188;8.696;2023-03-19T02:26:01;12.27;;;9.75;;
16845;SDS011;8539;53.188;8.696;2023-03-19T02:28:40;12.20;;;9.52;;
16845;SDS011;8539;53.188;8.696;2023-03-19T02:31:08;11.85;;;9.20;;
16845;SDS011;8539;53.188;8.696;2023-03-19T02:33:35;11.20;;;8.30;;
16845;SDS011;8539;53.188;8.696;2023-03-19T02:36:02;9.52;;;7.93;;
16845;SDS011;8539;53.188;8.696;2023-03-19T02:38:32;11.90;;;8.15;;
16845;SDS011;8539;53.188;8.696;2023-03-19T02:41:00;9.88;;;7.50;;
16845;SDS011;8539;53.188;8.696;2023-03-19T02:43:32;9.77;;;7.75;;
16845;SDS011;8539;53.188;8.696;2023-03-19T02:46:01;8.90;;;7.00;;
16845;SDS011;8539;53.188;8.696;2023-03-19T02:48:28;8.43;;;7.07;;
16845;SDS011;8539;53.188;8.696;2023-03-19T02:50:54;10.23;;;6.82;;
16845;SDS011;8539;53.188;8.696;2023-03-19T02:53:21;9.38;;;7.13;;
16845;SDS011;8539;53.188;8.696;2023-03-19T02:55:47;8.88;;;7.43;;
16845;SDS011;8539;53.188;8.696;2023-03-19T02:58:14;10.55;;;6.88;;
16845;SDS011;8539;53.188;8.696;2023-03-19T03:00:40;10.52;;;7.45;;
16845;SDS011;8539;53.188;8.696;2023-03-19T03:03:07;10.40;;;7.35;;
16845;SDS011;8539;53.188;8.696;2023-03-19T03:05:33;10.77;;;7.72;;
16845;SDS011;8539;53.188;8.696;2023-03-19T03:08:00;10.25;;;7.68;;
16845;SDS011;8539;53.188;8.696;2023-03-19T03:10:28;9.10;;;7.63;;
16845;SDS011;8539;53.188;8.696;2023-03-19T03:12:54;8.05;;;7.22;;
16845;SDS011;8539;53.188;8.696;2023-03-19T03:15:20;9.07;;;7.43;;
16845;SDS011;8539;53.188;8.696;2023-03-19T03:17:46;12.73;;;6.65;;
16845;SDS011;8539;53.188;8.696;2023-03-19T03:20:13;9.35;;;7.10;;
16845;SDS011;8539;53.188;8.696;2023-03-19T03:22:42;9.05;;;7.25;;
16845;SDS011;8539;53.188;8.696;2023-03-19T03:25:09;11.10;;;7.55;;
16845;SDS011;8539;53.188;8.696;2023-03-19T03:27:36;11.05;;;7.90;;
16845;SDS011;8539;53.188;8.696;2023-03-19T03:30:03;9.40;;;7.47;;
16845;SDS011;8539;53.188;8.696;2023-03-19T03:32:31;10.30;;;7.90;;
16845;SDS011;8539;53.188;8.696;2023-03-19T03:34:57;9.55;;;7.45;;
16845;SDS011;8539;53.188;8.696;2023-03-19T03:37:23;10.68;;;7.95;;
16845;SDS011;8539;53.188;8.696;2023-03-19T03:39:49;9.18;;;6.72;;
16845;SDS011;8539;53.188;8.696;2023-03-19T03:42:15;8.90;;;6.97;;
16845;SDS011;8539;53.188;8.696;2023-03-19T03:44:41;10.02;;;7.65;;
16845;SDS011;8539;53.188;8.696;2023-03-19T03:47:08;10.02;;;6.65;;
16845;SDS011;8539;53.188;8.696;2023-03-19T03:49:34;7.78;;;6.97;;
16845;SDS011;8539;53.188;8.696;2023-03-19T03:52:00;7.90;;;7.05;;
16845;SDS011;8539;53.188;8.696;2023-03-19T03:54:26;7.82;;;7.00;;
16845;SDS011;8539;53.188;8.696;2023-03-19T03:56:52;14.95;;;8.40;;
16845;SDS011;8539;53.188;8.696;2023-03-19T03:59:18;8.55;;;7.22;;
16845;SDS011;8539;53.188;8.696;2023-03-19T04:01:45;9.25;;;7.53;;
16845;SDS011;8539;53.188;8.696;2023-03-19T04:04:11;10.95;;;7.85;;
16845;SDS011;8539;53.188;8.696;2023-03-19T04:06:37;9.32;;;7.47;;
16845;SDS011;8539;53.188;8.696;2023-03-19T04:09:03;11.45;;;8.60;;
16845;SDS011;8539;53.188;8.696;2023-03-19T04:11:29;11.38;;;8.43;;
16845;SDS011;8539;53.188;8.696;2023-03-19T04:13:56;10.18;;;8.07;;
16845;SDS011;8539;53.188;8.696;2023-03-19T04:16:22;12.10;;;9.25;;
16845;SDS011;8539;53.188;8.696;2023-03-19T04:18:49;12.90;;;9.32;;
16845;SDS011;8539;53.188;8.696;2023-03-19T04:21:15;13.98;;;8.82;;
16845;SDS011;8539;53.188;8.696;2023-03-19T04:23:41;11.90;;;8.52;;
16845;SDS011;8539;53.188;8.696;2023-03-19T04:26:08;12.23;;;9.25;;
16845;SDS011;8539;53.188;8.696;2023-03-19T04:28:34;10.93;;;8.65;;
16845;SDS011;8539;53.188;8.696;2023-03-19T04:31:01;9.02;;;7.13;;
16845;SDS011;8539;53.188;8.696;2023-03-19T04:33:29;10.93;;;8.50;;
16845;SDS011;8539;53.188;8.696;2023-03-19T04:35:55;11.25;;;9.52;;
16845;SDS011;8539;53.188;8.696;2023-03-19T04:38:22;9.57;;;8.55;;
16845;SDS011;8539;53.188;8.696;2023-03-19T04:40:51;12.13;;;9.73;;
16845;SDS011;8539;53.188;8.696;2023-03-19T04:43:17;13.35;;;8.95;;
16845;SDS011;8539;53.188;8.696;2023-03-19T04:45:44;10.85;;;8.73;;
16845;SDS011;8539;53.188;8.696;2023-03-19T04:48:10;12.02;;;9.23;;
16845;SDS011;8539;53.188;8.696;2023-03-19T04:50:37;12.30;;;9.45;;
16845;SDS011;8539;53.188;8.696;2023-03-19T04:53:04;10.82;;;8.57;;
16845;SDS011;8539;53.188;8.696;2023-03-19T04:55:30;10.15;;;9.02;;
16845;SDS011;8539;53.188;8.696;2023-03-19T04:57:57;11.07;;;9.30;;
16845;SDS011;8539;53.188;8.696;2023-03-19T05:00:23;20.75;;;10.43;;
16845;SDS011;8539;53.188;8.696;2023-03-19T05:02:49;12.30;;;9.68;;
16845;SDS011;8539;53.188;8.696;2023-03-19T05:05:16;14.15;;;10.18;;
16845;SDS011;8539;53.188;8.696;2023-03-19T05:07:46;13.65;;;10.25;;
16845;SDS011;8539;53.188;8.696;2023-03-19T05:10:12;12.98;;;10.02;;
16845;SDS011;8539;53.188;8.696;2023-03-19T05:12:38;12.70;;;9.88;;
16845;SDS011;8539;53.188;8.696;2023-03-19T05:15:05;13.45;;;9.68;;
16845;SDS011;8539;53.188;8.696;2023-03-19T05:17:32;11.18;;;9.93;;
16845;SDS011;8539;53.188;8.696;2023-03-19T05:20:00;15.70;;;11.25;;
16845;SDS011;8539;53.188;8.696;2023-03-19T05:22:27;12.15;;;10.13;;
16845;SDS011;8539;53.188;8.696;2023-03-19T05:24:53;13.25;;;10.32;;
16845;SDS011;8539;53.188;8.696;2023-03-19T05:27:19;13.77;;;10.80;;
16845;SDS011;8539;53.188;8.696;2023-03-19T05:29:46;13.40;;;10.70;;
16845;SDS011;8539;53.188;8.696;2023-03-19T05:32:12;12.35;;;11.05;;
16845;SDS011;8539;53.188;8.696;2023-03-19T05:34:39;15.32;;;12.30;;
16845;SDS011;8539;53.188;8.696;2023-03-19T05:37:05;14.35;;;12.13;;
16845;SDS011;8539;53.188;8.696;2023-03-19T05:39:31;14.90;;;11.95;;
16845;SDS011;8539;53.188;8.696;2023-03-19T05:41:57;13.52;;;10.95;;
16845;SDS011;8539;53.188;8.696;2023-03-19T05:44:23;16.42;;;12.40;;
16845;SDS011;8539;53.188;8.696;2023-03-19T05:46:49;13.10;;;10.93;;
16845;SDS011;8539;53.188;8.696;2023-03-19T05:49:16;14.68;;;11.20;;
16845;SDS011;8539;53.188;8.696;2023-03-19T05:51:42;14.27;;;11.52;;
16845;SDS011;8539;53.188;8.696;2023-03-19T05:54:08;15.00;;;11.82;;
16845;SDS011;8539;53.188;8.696;2023-03-19T05:56:34;13.25;;;10.57;;
16845;SDS011;8539;53.188;8.696;2023-03-19T05:59:01;14.95;;;12.10;;
16845;SDS011;8539;53.188;8.696;2023-03-19T06:01:27;18.20;;;13.05;;
16845;SDS011;8539;53.188;8.696;2023-03-19T06:03:54;17.48;;;13.50;;
16845;SDS011;8539;53.188;8.696;2023-03-19T06:06:20;19.08;;;15.07;;
16845;SDS011;8539;53.188;8.696;2023-03-19T06:08:46;18.23;;;12.98;;
16845;SDS011;8539;53.188;8.696;2023-03-19T06:11:13;17.95;;;14.48;;
16845;SDS011;8539;53.188;8.696;2023-03-19T06:13:39;19.88;;;14.40;;
16845;SDS011;8539;53.188;8.696;2023-03-19T06:16:05;19.23;;;14.30;;
16845;SDS011;8539;53.188;8.696;2023-03-19T06:18:32;18.38;;;15.57;;
16845;SDS011;8539;53.188;8.696;2023-03-19T06:20:58;19.67;;;15.02;;
16845;SDS011;8539;53.188;8.696;2023-03-19T06:23:24;28.77;;;15.05;;
16845;SDS011;8539;53.188;8.696;2023-03-19T06:25:50;19.75;;;14.68;;
16845;SDS011;8539;53.188;8.696;2023-03-19T06:28:17;24.48;;;16.70;;
16845;SDS011;8539;53.188;8.696;2023-03-19T06:30:43;25.17;;;17.27;;
16845;SDS011;8539;53.188;8.696;2023-03-19T06:33:09;18.67;;;15.43;;
16845;SDS011;8539;53.188;8.696;2023-03-19T06:35:35;21.33;;;14.55;;
16845;SDS011;8539;53.188;8.696;2023-03-19T06:38:01;20.50;;;15.55;;
16845;SDS011;8539;53.188;8.696;2023-03-19T06:40:28;20.67;;;14.77;;
16845;SDS011;8539;53.188;8.696;2023-03-19T06:42:54;20.50;;;15.27;;
16845;SDS011;8539;53.188;8.696;2023-03-19T06:45:21;18.80;;;15.20;;
16845;SDS011;8539;53.188;8.696;2023-03-19T06:47:47;21.70;;;16.33;;
16845;SDS011;8539;53.188;8.696;2023-03-19T06:50:13;24.75;;;15.85;;
16845;SDS011;8539;53.188;8.696;2023-03-19T06:52:41;20.95;;;14.85;;
16845;SDS011;8539;53.188;8.696;2023-03-19T06:55:07;20.20;;;16.67;;
16845;SDS011;8539;53.188;8.696;2023-03-19T06:57:34;18.23;;;14.65;;
16845;SDS011;8539;53.188;8.696;2023-03-19T07:00:00;17.95;;;14.93;;
16845;SDS011;8539;53.188;8.696;2023-03-19T07:02:26;18.00;;;14.38;;
16845;SDS011;8539;53.188;8.696;2023-03-19T07:04:53;16.88;;;14.77;;
16845;SDS011;8539;53.188;8.696;2023-03-19T07:07:19;19.45;;;14.85;;
16845;SDS011;8539;53.188;8.696;2023-03-19T07:09:46;20.38;;;15.80;;
16845;SDS011;8539;53.188;8.696;2023-03-19T07:12:12;17.38;;;13.70;;
16845;SDS011;8539;53.188;8.696;2023-03-19T07:14:38;16.50;;;14.25;;
16845;SDS011;8539;53.188;8.696;2023-03-19T07:17:04;18.50;;;13.32;;
16845;SDS011;8539;53.188;8.696;2023-03-19T07:19:31;20.17;;;12.65;;
16845;SDS011;8539;53.188;8.696;2023-03-19T07:21:57;16.58;;;13.57;;
16845;SDS011;8539;53.188;8.696;2023-03-19T07:24:23;14.45;;;11.93;;
16845;SDS011;8539;53.188;8.696;2023-03-19T07:26:49;17.52;;;13.20;;
16845;SDS011;8539;53.188;8.696;2023-03-19T07:29:16;17.48;;;12.60;;
16845;SDS011;8539;53.188;8.696;2023-03-19T07:31:42;20.05;;;12.95;;
16845;SDS011;8539;53.188;8.696;2023-03-19T07:34:08;19.33;;;14.35;;
16845;SDS011;8539;53.188;8.696;2023-03-19T07:36:34;17.83;;;13.38;;
16845;SDS011;8539;53.188;8.696;2023-03-19T07:39:00;15.68;;;12.40;;
16845;SDS011;8539;53.188;8.696;2023-03-19T07:41:27;19.25;;;13.15;;
16845;SDS011;8539;53.188;8.696;2023-03-19T07:43:54;16.42;;;12.52;;
16845;SDS011;8539;53.188;8.696;2023-03-19T07:46:22;23.90;;;14.40;;
16845;SDS011;8539;53.188;8.696;2023-03-19T07:48:49;28.52;;;14.43;;
16845;SDS011;8539;53.188;8.696;2023-03-19T07:51:16;17.88;;;14.05;;
16845;SDS011;8539;53.188;8.696;2023-03-19T07:53:42;23.50;;;14.38;;
16845;SDS011;8539;53.188;8.696;2023-03-19T07:56:08;21.63;;;13.85;;
16845;SDS011;8539;53.188;8.696;2023-03-19T07:58:34;16.35;;;12.20;;
16845;SDS011;8539;53.188;8.696;2023-03-19T08:01:00;16.90;;;10.43;;
16845;SDS011;8539;53.188;8.696;2023-03-19T08:03:26;16.05;;;9.52;;
16845;SDS011;8539;53.188;8.696;2023-03-19T08:05:53;11.90;;;9.13;;
16845;SDS011;8539;53.188;8.696;2023-03-19T08:08:20;11.63;;;9.18;;
16845;SDS011;8539;53.188;8.696;2023-03-19T08:10:46;13.77;;;8.45;;
16845;SDS011;8539;53.188;8.696;2023-03-19T08:13:15;11.07;;;8.20;;
16845;SDS011;8539;53.188;8.696;2023-03-19T08:15:41;13.07;;;9.20;;
16845;SDS011;8539;53.188;8.696;2023-03-19T08:18:07;12.45;;;9.00;;
16845;SDS011;8539;53.188;8.696;2023-03-19T08:20:33;10.50;;;8.27;;
16845;SDS011;8539;53.188;8.696;2023-03-19T08:23:00;10.60;;;8.07;;
16845;SDS011;8539;53.188;8.696;2023-03-19T08:25:27;11.73;;;8.98;;
16845;SDS011;8539;53.188;8.696;2023-03-19T08:27:57;10.98;;;8.13;;
16845;SDS011;8539;53.188;8.696;2023-03-19T08:30:24;10.55;;;7.90;;
16845;SDS011;8539;53.188;8.696;2023-03-19T08:32:50;12.73;;;7.60;;
16845;SDS011;8539;53.188;8.696;2023-03-19T08:35:22;11.18;;;7.70;;
16845;SDS011;8539;53.188;8.696;2023-03-19T08:37:51;17.48;;;9.13;;
16845;SDS011;8539;53.188;8.696;2023-03-19T08:40:19;14.38;;;8.13;;
16845;SDS011;8539;53.188;8.696;2023-03-19T08:42:50;13.20;;;8.38;;
16845;SDS011;8539;53.188;8.696;2023-03-19T08:45:17;11.90;;;8.15;;
16845;SDS011;8539;53.188;8.696;2023-03-19T08:47:44;12.80;;;8.38;;
16845;SDS011;8539;53.188;8.696;2023-03-19T08:50:10;19.08;;;9.02;;
16845;SDS011;8539;53.188;8.696;2023-03-19T08:52:36;14.98;;;7.97;;
16845;SDS011;8539;53.188;8.696;2023-03-19T08:55:06;13.55;;;8.55;;
16845;SDS011;8539;53.188;8.696;2023-03-19T08:57:33;10.57;;;7.88;;
16845;SDS011;8539;53.188;8.696;2023-03-19T09:00:00;16.70;;;8.25;;
16845;SDS011;8539;53.188;8.696;2023-03-19T09:02:28;13.35;;;9.05;;
16845;SDS011;8539;53.188;8.696;2023-03-19T09:04:55;16.13;;;7.88;;
16845;SDS011;8539;53.188;8.696;2023-03-19T09:07:21;9.82;;;7.63;;
16845;SDS011;8539;53.188;8.696;2023-03-19T09:09:47;10.60;;;8.10;;
16845;SDS011;8539;53.188;8.696;2023-03-19T09:12:14;10.02;;;8.38;;
16845;SDS011;8539;53.188;8.696;2023-03-19T09:14:42;17.92;;;9.63;;
16845;SDS011;8539;53.188;8.696;2023-03-19T09:17:08;13.95;;;9.10;;
16845;SDS011;8539;53.188;8.696;2023-03-19T09:19:35;10.60;;;8.45;;
16845;SDS011;8539;53.188;8.696;2023-03-19T09:22:02;10.48;;;7.95;;
16845;SDS011;8539;53.188;8.696;2023-03-19T09:24:28;12.30;;;8.20;;
16845;SDS011;8539;53.188;8.696;2023-03-19T09:26:55;13.05;;;8.10;;
16845;SDS011;8539;53.188;8.696;2023-03-19T09:29:22;12.00;;;8.40;;
16845;SDS011;8539;53.188;8.696;2023-03-19T09:31:48;14.35;;;8.45;;
16845;SDS011;8539;53.188;8.696;2023-03-19T09:34:14;12.75;;;7.18;;
16845;SDS011;8539;53.188;8.696;2023-03-19T09:36:40;12.52;;;7.97;;
16845;SDS011;8539;53.188;8.696;2023-03-19T09:39:06;10.05;;;8.32;;
16845;SDS011;8539;53.188;8.696;2023-03-19T09:44:36;10.93;;;7.93;;
16845;SDS011;8539;53.188;8.696;2023-03-19T09:47:18;9.18;;;7.90;;
16845;SDS011;8539;53.188;8.696;2023-03-19T09:49:57;11.68;;;8.35;;
16845;SDS011;8539;53.188;8.696;2023-03-19T09:52:29;12.25;;;8.02;;
16845;SDS011;8539;53.188;8.696;2023-03-19T09:54:57;9.60;;;7.95;;
16845;SDS011;8539;53.188;8.696;2023-03-19T09:57:29;10.03;;;8.20;;
16845;SDS011;8539;53.188;8.696;2023-03-19T09:59:57;10.88;;;8.70;;
16845;SDS011;8539;53.188;8.696;2023-03-19T10:02:40;10.82;;;8.25;;
16845;SDS011;8539;53.188;8.696;2023-03-19T10:12:59;11.95;;;8.07;;
16845;SDS011;8539;53.188;8.696;2023-03-19T10:15:55;8.77;;;7.75;;
16845;SDS011;8539;53.188;8.696;2023-03-19T10:18:33;11.82;;;8.73;;
16845;SDS011;8539;53.188;8.696;2023-03-19T10:24:01;12.27;;;8.43;;
16845;SDS011;8539;53.188;8.696;2023-03-19T10:26:40;10.70;;;7.90;;
16845;SDS011;8539;53.188;8.696;2023-03-19T10:29:09;10.80;;;8.18;;
16845;SDS011;8539;53.188;8.696;2023-03-19T10:31:43;13.38;;;8.35;;
16845;SDS011;8539;53.188;8.696;2023-03-19T10:37:35;12.30;;;8.73;;
16845;SDS011;8539;53.188;8.696;2023-03-19T10:39:50;9.85;;;7.72;;
16845;SDS011;8539;53.188;8.696;2023-03-19T10:47:54;10.73;;;7.53;;
16845;SDS011;8539;53.188;8.696;2023-03-19T10:50:22;11.90;;;8.13;;
16845;SDS011;8539;53.188;8.696;2023-03-19T10:53:01;10.40;;;7.47;;
16845;SDS011;8539;53.188;8.696;2023-03-19T10:55:37;10.40;;;7.50;;
16845;SDS011;8539;53.188;8.696;2023-03-19T10:58:04;11.30;;;6.55;;
16845;SDS011;8539;53.188;8.696;2023-03-19T11:00:39;9.20;;;7.78;;
16845;SDS011;8539;53.188;8.696;2023-03-19T11:03:09;10.75;;;7.47;;
16845;SDS011;8539;53.188;8.696;2023-03-19T11:06:21;11.82;;;7.72;;
16845;SDS011;8539;53.188;8.696;2023-03-19T11:09:01;12.70;;;7.78;;
16845;SDS011;8539;53.188;8.696;2023-03-19T11:11:46;10.88;;;7.45;;
16845;SDS011;8539;53.188;8.696;2023-03-19T11:14:19;11.30;;;8.60;;
16845;SDS011;8539;53.188;8.696;2023-03-19T11:19:52;13.55;;;8.63;;
16845;SDS011;8539;53.188;8.696;2023-03-19T11:22:23;10.50;;;8.63;;
16845;SDS011;8539;53.188;8.696;2023-03-19T11:25:02;10.82;;;8.60;;
16845;SDS011;8539;53.188;8.696;2023-03-19T11:27:57;12.30;;;8.25;;
16845;SDS011;8539;53.188;8.696;2023-03-19T11:30:27;11.60;;;7.72;;
16845;SDS011;8539;53.188;8.696;2023-03-19T11:35:48;11.27;;;8.63;;
16845;SDS011;8539;53.188;8.696;2023-03-19T11:38:52;10.20;;;8.18;;
16845;SDS011;8539;53.188;8.696;2023-03-19T11:47:11;12.73;;;9.95;;
16845;SDS011;8539;53.188;8.696;2023-03-19T11:52:22;11.13;;;9.75;;
16845;SDS011;8539;53.188;8.696;2023-03-19T12:00:53;17.08;;;10.75;;
16845;SDS011;8539;53.188;8.696;2023-03-19T12:05:58;13.95;;;12.00;;
16845;SDS011;8539;53.188;8.696;2023-03-19T12:11:42;16.42;;;12.90;;
16845;SDS011;8539;53.188;8.696;2023-03-19T12:17:01;17.75;;;15.02;;
16845;SDS011;8539;53.188;8.696;2023-03-19T12:19:52;19.33;;;16.10;;
16845;SDS011;8539;53.188;8.696;2023-03-19T12:25:33;19.92;;;15.70;;
16845;SDS011;8539;53.188;8.696;2023-03-19T12:28:25;22.90;;;16.52;;
16845;SDS011;8539;53.188;8.696;2023-03-19T12:33:45;21.27;;;16.77;;
16845;SDS011;8539;53.188;8.696;2023-03-19T12:36:22;22.55;;;17.95;;
16845;SDS011;8539;53.188;8.696;2023-03-19T12:38:57;26.52;;;19.15;;
16845;SDS011;8539;53.188;8.696;2023-03-19T12:41:31;24.35;;;18.52;;
16845;SDS011;8539;53.188;8.696;2023-03-19T12:44:13;22.15;;;18.63;;
16845;SDS011;8539;53.188;8.696;2023-03-19T12:46:54;21.17;;;17.42;;
16845;SDS011;8539;53.188;8.696;2023-03-19T12:49:30;20.20;;;16.70;;
16845;SDS011;8539;53.188;8.696;2023-03-19T12:54:39;21.02;;;16.50;;
16845;SDS011;8539;53.188;8.696;2023-03-19T12:57:18;20.30;;;16.20;;
16845;SDS011;8539;53.188;8.696;2023-03-19T13:07:58;17.98;;;14.15;;
16845;SDS011;8539;53.188;8.696;2023-03-19T13:10:38;21.05;;;15.90;;
16845;SDS011;8539;53.188;8.696;2023-03-19T13:13:27;22.27;;;14.82;;
16845;SDS011;8539;53.188;8.696;2023-03-19T13:21:57;20.17;;;14.55;;
16845;SDS011;8539;53.188;8.696;2023-03-19T13:24:28;17.35;;;13.80;;
16845;SDS011;8539;53.188;8.696;2023-03-19T13:27:05;15.52;;;13.30;;
16845;SDS011;8539;53.188;8.696;2023-03-19T13:29:34;14.68;;;12.63;;
16845;SDS011;8539;53.188;8.696;2023-03-19T13:32:06;18.73;;;13.95;;
16845;SDS011;8539;53.188;8.696;2023-03-19T13:34:46;18.02;;;13.90;;
16845;SDS011;8539;53.188;8.696;2023-03-19T13:37:17;16.33;;;13.30;;
16845;SDS011;8539;53.188;8.696;2023-03-19T13:39:46;17.23;;;13.65;;
16845;SDS011;8539;53.188;8.696;2023-03-19T13:45:27;18.92;;;14.38;;
16845;SDS011;8539;53.188;8.696;2023-03-19T13:48:21;12.98;;;11.65;;
16845;SDS011;8539;53.188;8.696;2023-03-19T13:51:03;14.10;;;12.07;;
16845;SDS011;8539;53.188;8.696;2023-03-19T13:59:30;13.88;;;11.57;;
16845;SDS011;8539;53.188;8.696;2023-03-19T14:05:01;18.20;;;13.23;;
16845;SDS011;8539;53.188;8.696;2023-03-19T14:12:41;16.17;;;13.27;;
16845;SDS011;8539;53.188;8.696;2023-03-19T14:17:36;14.20;;;12.27;;
16845;SDS011;8539;53.188;8.696;2023-03-19T14:25:52;14.88;;;12.73;;
16845;SDS011;8539;53.188;8.696;2023-03-19T14:31:17;12.20;;;10.75;;
16845;SDS011;8539;53.188;8.696;2023-03-19T14:34:05;13.10;;;11.02;;
16845;SDS011;8539;53.188;8.696;2023-03-19T14:36:37;15.27;;;13.10;;
16845;SDS011;8539;53.188;8.696;2023-03-19T14:41:42;15.65;;;11.32;;
16845;SDS011;8539;53.188;8.696;2023-03-19T14:52:32;9.32;;;8.15;;
16845;SDS011;8539;53.188;8.696;2023-03-19T14:55:02;9.40;;;7.57;;
16845;SDS011;8539;53.188;8.696;2023-03-19T14:57:34;10.38;;;7.15;;
16845;SDS011;8539;53.188;8.696;2023-03-19T15:00:02;10.95;;;6.93;;
16845;SDS011;8539;53.188;8.696;2023-03-19T15:07:52;6.60;;;5.82;;
16845;SDS011;8539;53.188;8.696;2023-03-19T15:10:22;5.65;;;5.00;;
16845;SDS011;8539;53.188;8.696;2023-03-19T15:13:38;7.22;;;5.47;;
16845;SDS011;8539;53.188;8.696;2023-03-19T15:18:34;6.22;;;5.50;;
16845;SDS011;8539;53.188;8.696;2023-03-19T15:21:01;6.60;;;5.88;;
16845;SDS011;8539;53.188;8.696;2023-03-19T15:23:29;10.23;;;5.70;;
16845;SDS011;8539;53.188;8.696;2023-03-19T15:25:57;7.32;;;4.85;;
16845;SDS011;8539;53.188;8.696;2023-03-19T15:28:43;7.45;;;6.35;;
16845;SDS011;8539;53.188;8.696;2023-03-19T15:31:12;6.22;;;5.55;;
16845;SDS011;8539;53.188;8.696;2023-03-19T15:33:41;7.07;;;5.55;;
16845;SDS011;8539;53.188;8.696;2023-03-19T15:36:11;8.40;;;4.68;;
16845;SDS011;8539;53.188;8.696;2023-03-19T15:39:02;6.55;;;5.25;;
16845;SDS011;8539;53.188;8.696;2023-03-19T15:41:34;9.20;;;5.18;;
16845;SDS011;8539;53.188;8.696;2023-03-19T15:44:05;5.57;;;4.55;;
16845;SDS011;8539;53.188;8.696;2023-03-19T15:46:36;5.53;;;4.65;;
16845;SDS011;8539;53.188;8.696;2023-03-19T15:51:57;7.03;;;5.10;;
16845;SDS011;8539;53.188;8.696;2023-03-19T15:54:26;5.85;;;5.22;;
16845;SDS011;8539;53.188;8.696;2023-03-19T15:56:53;6.90;;;5.57;;
16845;SDS011;8539;53.188;8.696;2023-03-19T15:59:20;7.45;;;6.20;;
16845;SDS011;8539;53.188;8.696;2023-03-19T16:01:50;6.78;;;6.07;;
16845;SDS011;8539;53.188;8.696;2023-03-19T16:04:18;8.82;;;5.80;;
16845;SDS011;8539;53.188;8.696;2023-03-19T16:06:50;5.68;;;5.10;;
16845;SDS011;8539;53.188;8.696;2023-03-19T16:11:50;6.00;;;4.65;;
16845;SDS011;8539;53.188;8.696;2023-03-19T16:14:22;6.03;;;5.38;;
16845;SDS011;8539;53.188;8.696;2023-03-19T16:22:01;5.35;;;4.15;;
16845;SDS011;8539;53.188;8.696;2023-03-19T16:24:55;7.15;;;5.13;;
16845;SDS011;8539;53.188;8.696;2023-03-19T16:27:40;6.05;;;4.03;;
16845;SDS011;8539;53.188;8.696;2023-03-19T16:33:00;5.60;;;3.72;;
16845;SDS011;8539;53.188;8.696;2023-03-19T16:35:28;4.50;;;3.67;;
16845;SDS011;8539;53.188;8.696;2023-03-19T16:40:46;5.13;;;4.32;;
16845;SDS011;8539;53.188;8.696;2023-03-19T16:43:14;5.65;;;4.28;;
16845;SDS011;8539;53.188;8.696;2023-03-19T16:45:42;5.35;;;4.63;;
16845;SDS011;8539;53.188;8.696;2023-03-19T16:48:09;5.72;;;3.90;;
16845;SDS011;8539;53.188;8.696;2023-03-19T16:50:36;5.47;;;4.95;;
16845;SDS011;8539;53.188;8.696;2023-03-19T16:53:05;5.13;;;4.57;;
16845;SDS011;8539;53.188;8.696;2023-03-19T16:55:43;5.47;;;4.50;;
16845;SDS011;8539;53.188;8.696;2023-03-19T16:58:13;6.75;;;5.00;;
16845;SDS011;8539;53.188;8.696;2023-03-19T17:00:44;8.30;;;4.47;;
16845;SDS011;8539;53.188;8.696;2023-03-19T17:03:15;8.45;;;4.90;;
16845;SDS011;8539;53.188;8.696;2023-03-19T17:05:43;7.00;;;4.57;;
16845;SDS011;8539;53.188;8.696;2023-03-19T17:08:10;7.85;;;5.00;;
16845;SDS011;8539;53.188;8.696;2023-03-19T17:10:39;6.47;;;5.18;;
16845;SDS011;8539;53.188;8.696;2023-03-19T17:13:26;6.13;;;5.07;;
16845;SDS011;8539;53.188;8.696;2023-03-19T17:15:54;6.38;;;4.03;;
16845;SDS011;8539;53.188;8.696;2023-03-19T17:18:23;5.47;;;4.75;;
16845;SDS011;8539;53.188;8.696;2023-03-19T17:20:53;7.63;;;4.95;;